Weather at El Arenosilllo Airstrip

Public forecast

Using degrees Celsius for public forecast. Weather courtesy of forecast.io.

Closest aviation weather report (METAR) to El Arenosilllo Airstrip

Closest report is Rota Naval Station Airport, 32.8 nm (60.8 km) SE.

2024/07/25 06:30 (retrieved 28 minutes ago)

LERT 250630Z 27004KT 230V360 CAVOK 23/20 Q1011 NOSIG

Closest aviation forecast (TAF) to El Arenosilllo Airstrip

Closest forecast is Faro Airport, 59.2 nm (109.7 km) W.

2024/07/25 06:18 (retrieved 40 minutes ago)

TAF LPFR 250500Z 2506/2606 29005KT CAVOK BECMG 2509/2511 26015KT BECMG 2518/2520 30012KT